sensor_id;sensor_type;location;lat;lon;timestamp;P1;durP1;ratioP1;P2;durP2;ratioP2
9712;SDS011;4895;50.926;6.870;2022-12-18T00:01:04;29.77;;;13.40;;
9712;SDS011;4895;50.926;6.870;2022-12-18T00:03:33;24.50;;;9.57;;
9712;SDS011;4895;50.926;6.870;2022-12-18T00:05:59;28.97;;;13.10;;
9712;SDS011;4895;50.926;6.870;2022-12-18T00:08:24;30.57;;;11.47;;
9712;SDS011;4895;50.926;6.870;2022-12-18T00:10:50;31.67;;;11.50;;
9712;SDS011;4895;50.926;6.870;2022-12-18T00:13:16;24.27;;;11.30;;
9712;SDS011;4895;50.926;6.870;2022-12-18T00:15:41;27.63;;;10.53;;
9712;SDS011;4895;50.926;6.870;2022-12-18T00:18:06;28.13;;;12.17;;
9712;SDS011;4895;50.926;6.870;2022-12-18T00:20:39;27.63;;;11.87;;
9712;SDS011;4895;50.926;6.870;2022-12-18T00:23:05;38.23;;;12.23;;
9712;SDS011;4895;50.926;6.870;2022-12-18T00:25:34;30.43;;;12.73;;
9712;SDS011;4895;50.926;6.870;2022-12-18T00:28:00;20.70;;;9.00;;
9712;SDS011;4895;50.926;6.870;2022-12-18T00:30:26;38.60;;;13.13;;
9712;SDS011;4895;50.926;6.870;2022-12-18T00:32:52;31.00;;;12.33;;
9712;SDS011;4895;50.926;6.870;2022-12-18T00:35:17;27.40;;;11.43;;
9712;SDS011;4895;50.926;6.870;2022-12-18T00:37:43;31.23;;;11.63;;
9712;SDS011;4895;50.926;6.870;2022-12-18T00:40:08;29.17;;;11.10;;
9712;SDS011;4895;50.926;6.870;2022-12-18T00:42:37;26.70;;;11.50;;
9712;SDS011;4895;50.926;6.870;2022-12-18T00:45:24;24.90;;;11.17;;
9712;SDS011;4895;50.926;6.870;2022-12-18T00:47:51;28.10;;;12.57;;
9712;SDS011;4895;50.926;6.870;2022-12-18T00:50:16;25.80;;;12.33;;
9712;SDS011;4895;50.926;6.870;2022-12-18T00:52:42;36.53;;;13.60;;
9712;SDS011;4895;50.926;6.870;2022-12-18T00:55:07;27.67;;;12.40;;
9712;SDS011;4895;50.926;6.870;2022-12-18T00:57:33;31.43;;;10.73;;
9712;SDS011;4895;50.926;6.870;2022-12-18T00:59:58;29.90;;;12.80;;
9712;SDS011;4895;50.926;6.870;2022-12-18T01:02:23;25.10;;;11.13;;
9712;SDS011;4895;50.926;6.870;2022-12-18T01:04:49;28.50;;;12.07;;
9712;SDS011;4895;50.926;6.870;2022-12-18T01:07:14;29.33;;;10.90;;
9712;SDS011;4895;50.926;6.870;2022-12-18T01:09:39;25.90;;;10.80;;
9712;SDS011;4895;50.926;6.870;2022-12-18T01:12:04;26.57;;;11.20;;
9712;SDS011;4895;50.926;6.870;2022-12-18T01:14:30;28.33;;;11.70;;
9712;SDS011;4895;50.926;6.870;2022-12-18T01:16:56;13.60;;;6.10;;
9712;SDS011;4895;50.926;6.870;2022-12-18T01:19:21;28.97;;;12.57;;
9712;SDS011;4895;50.926;6.870;2022-12-18T01:21:48;31.73;;;12.90;;
9712;SDS011;4895;50.926;6.870;2022-12-18T01:24:14;29.20;;;14.00;;
9712;SDS011;4895;50.926;6.870;2022-12-18T01:26:39;36.80;;;13.43;;
9712;SDS011;4895;50.926;6.870;2022-12-18T01:29:05;24.43;;;12.40;;
9712;SDS011;4895;50.926;6.870;2022-12-18T01:31:31;28.30;;;12.03;;
9712;SDS011;4895;50.926;6.870;2022-12-18T01:33:59;32.13;;;13.03;;
9712;SDS011;4895;50.926;6.870;2022-12-18T01:36:27;28.30;;;11.73;;
9712;SDS011;4895;50.926;6.870;2022-12-18T01:38:54;25.90;;;11.23;;
9712;SDS011;4895;50.926;6.870;2022-12-18T01:41:21;33.20;;;12.83;;
9712;SDS011;4895;50.926;6.870;2022-12-18T01:43:50;27.60;;;12.13;;
9712;SDS011;4895;50.926;6.870;2022-12-18T01:46:18;31.63;;;12.20;;
9712;SDS011;4895;50.926;6.870;2022-12-18T01:48:44;27.97;;;10.50;;
9712;SDS011;4895;50.926;6.870;2022-12-18T01:51:12;28.07;;;11.80;;
9712;SDS011;4895;50.926;6.870;2022-12-18T01:53:37;29.50;;;12.50;;
9712;SDS011;4895;50.926;6.870;2022-12-18T01:56:04;30.50;;;13.07;;
9712;SDS011;4895;50.926;6.870;2022-12-18T01:58:41;27.27;;;12.60;;
9712;SDS011;4895;50.926;6.870;2022-12-18T02:01:11;31.60;;;13.30;;
9712;SDS011;4895;50.926;6.870;2022-12-18T02:03:37;21.17;;;9.90;;
9712;SDS011;4895;50.926;6.870;2022-12-18T02:06:11;15.30;;;7.93;;
9712;SDS011;4895;50.926;6.870;2022-12-18T02:11:27;29.80;;;13.03;;
9712;SDS011;4895;50.926;6.870;2022-12-18T02:27:50;26.43;;;12.53;;
9712;SDS011;4895;50.926;6.870;2022-12-18T02:30:16;24.37;;;12.17;;
9712;SDS011;4895;50.926;6.870;2022-12-18T02:32:43;25.40;;;11.20;;
9712;SDS011;4895;50.926;6.870;2022-12-18T02:35:13;26.80;;;11.97;;
9712;SDS011;4895;50.926;6.870;2022-12-18T02:37:41;31.97;;;13.67;;
9712;SDS011;4895;50.926;6.870;2022-12-18T02:40:08;31.73;;;13.50;;
9712;SDS011;4895;50.926;6.870;2022-12-18T02:42:34;30.50;;;13.10;;
9712;SDS011;4895;50.926;6.870;2022-12-18T02:44:59;26.83;;;12.60;;
9712;SDS011;4895;50.926;6.870;2022-12-18T02:47:27;28.90;;;12.03;;
9712;SDS011;4895;50.926;6.870;2022-12-18T03:01:19;23.97;;;10.80;;
9712;SDS011;4895;50.926;6.870;2022-12-18T03:04:01;24.47;;;11.40;;
9712;SDS011;4895;50.926;6.870;2022-12-18T03:06:30;31.33;;;12.60;;
9712;SDS011;4895;50.926;6.870;2022-12-18T03:09:02;26.57;;;13.03;;
9712;SDS011;4895;50.926;6.870;2022-12-18T03:11:32;26.67;;;11.70;;
9712;SDS011;4895;50.926;6.870;2022-12-18T03:14:17;23.13;;;9.97;;
9712;SDS011;4895;50.926;6.870;2022-12-18T03:16:45;31.70;;;12.10;;
9712;SDS011;4895;50.926;6.870;2022-12-18T03:19:14;25.37;;;11.97;;
9712;SDS011;4895;50.926;6.870;2022-12-18T03:21:45;32.43;;;13.20;;
9712;SDS011;4895;50.926;6.870;2022-12-18T03:24:12;31.30;;;13.17;;
9712;SDS011;4895;50.926;6.870;2022-12-18T03:26:40;27.87;;;12.63;;
9712;SDS011;4895;50.926;6.870;2022-12-18T03:29:09;32.23;;;13.00;;
9712;SDS011;4895;50.926;6.870;2022-12-18T03:31:39;25.50;;;11.70;;
9712;SDS011;4895;50.926;6.870;2022-12-18T03:34:09;31.17;;;13.33;;
9712;SDS011;4895;50.926;6.870;2022-12-18T03:36:38;26.10;;;11.73;;
9712;SDS011;4895;50.926;6.870;2022-12-18T03:39:03;22.20;;;11.07;;
9712;SDS011;4895;50.926;6.870;2022-12-18T03:41:33;30.27;;;12.60;;
9712;SDS011;4895;50.926;6.870;2022-12-18T03:49:13;27.10;;;12.10;;
9712;SDS011;4895;50.926;6.870;2022-12-18T03:51:43;27.37;;;10.17;;
9712;SDS011;4895;50.926;6.870;2022-12-18T03:54:18;21.63;;;9.67;;
9712;SDS011;4895;50.926;6.870;2022-12-18T03:56:48;27.30;;;10.17;;
9712;SDS011;4895;50.926;6.870;2022-12-18T03:59:19;29.33;;;12.10;;
9712;SDS011;4895;50.926;6.870;2022-12-18T04:01:48;19.10;;;9.63;;
9712;SDS011;4895;50.926;6.870;2022-12-18T04:04:15;26.27;;;12.00;;
9712;SDS011;4895;50.926;6.870;2022-12-18T04:06:41;27.20;;;13.17;;
9712;SDS011;4895;50.926;6.870;2022-12-18T04:09:07;26.47;;;12.87;;
9712;SDS011;4895;50.926;6.870;2022-12-18T04:11:32;28.50;;;12.60;;
9712;SDS011;4895;50.926;6.870;2022-12-18T04:13:58;28.73;;;12.93;;
9712;SDS011;4895;50.926;6.870;2022-12-18T04:16:24;24.87;;;11.70;;
9712;SDS011;4895;50.926;6.870;2022-12-18T04:18:52;30.40;;;11.60;;
9712;SDS011;4895;50.926;6.870;2022-12-18T04:21:18;37.43;;;13.37;;
9712;SDS011;4895;50.926;6.870;2022-12-18T04:23:44;30.20;;;13.30;;
9712;SDS011;4895;50.926;6.870;2022-12-18T04:26:09;32.83;;;12.80;;
9712;SDS011;4895;50.926;6.870;2022-12-18T04:28:35;26.53;;;13.07;;
9712;SDS011;4895;50.926;6.870;2022-12-18T04:31:00;26.10;;;11.73;;
9712;SDS011;4895;50.926;6.870;2022-12-18T04:33:26;24.40;;;12.33;;
9712;SDS011;4895;50.926;6.870;2022-12-18T04:35:51;33.93;;;14.33;;
9712;SDS011;4895;50.926;6.870;2022-12-18T04:38:16;33.40;;;13.13;;
9712;SDS011;4895;50.926;6.870;2022-12-18T04:40:42;34.93;;;13.70;;
9712;SDS011;4895;50.926;6.870;2022-12-18T04:43:07;29.77;;;14.07;;
9712;SDS011;4895;50.926;6.870;2022-12-18T04:45:32;36.23;;;14.50;;
9712;SDS011;4895;50.926;6.870;2022-12-18T04:47:58;33.77;;;13.20;;
9712;SDS011;4895;50.926;6.870;2022-12-18T04:50:24;35.53;;;14.53;;
9712;SDS011;4895;50.926;6.870;2022-12-18T04:52:49;33.50;;;13.20;;
9712;SDS011;4895;50.926;6.870;2022-12-18T04:55:15;36.17;;;14.70;;
9712;SDS011;4895;50.926;6.870;2022-12-18T04:57:40;30.67;;;13.47;;
9712;SDS011;4895;50.926;6.870;2022-12-18T05:00:05;34.50;;;14.23;;
9712;SDS011;4895;50.926;6.870;2022-12-18T05:02:31;34.20;;;13.67;;
9712;SDS011;4895;50.926;6.870;2022-12-18T05:04:57;28.40;;;12.23;;
9712;SDS011;4895;50.926;6.870;2022-12-18T05:07:22;32.67;;;13.67;;
9712;SDS011;4895;50.926;6.870;2022-12-18T05:09:47;37.27;;;14.47;;
9712;SDS011;4895;50.926;6.870;2022-12-18T05:12:12;30.77;;;13.50;;
9712;SDS011;4895;50.926;6.870;2022-12-18T05:14:38;31.33;;;13.60;;
9712;SDS011;4895;50.926;6.870;2022-12-18T05:17:03;34.13;;;14.40;;
9712;SDS011;4895;50.926;6.870;2022-12-18T05:19:28;23.77;;;9.90;;
9712;SDS011;4895;50.926;6.870;2022-12-18T05:21:53;35.37;;;13.40;;
9712;SDS011;4895;50.926;6.870;2022-12-18T05:24:19;31.57;;;13.97;;
9712;SDS011;4895;50.926;6.870;2022-12-18T05:26:44;32.67;;;14.30;;
9712;SDS011;4895;50.926;6.870;2022-12-18T05:29:09;31.57;;;12.47;;
9712;SDS011;4895;50.926;6.870;2022-12-18T05:31:37;31.80;;;11.87;;
9712;SDS011;4895;50.926;6.870;2022-12-18T05:34:02;33.47;;;13.53;;
9712;SDS011;4895;50.926;6.870;2022-12-18T05:36:28;29.07;;;13.73;;
9712;SDS011;4895;50.926;6.870;2022-12-18T05:38:53;29.67;;;13.83;;
9712;SDS011;4895;50.926;6.870;2022-12-18T05:41:18;33.53;;;13.53;;
9712;SDS011;4895;50.926;6.870;2022-12-18T05:43:44;35.63;;;14.13;;
9712;SDS011;4895;50.926;6.870;2022-12-18T05:46:13;34.67;;;14.60;;
9712;SDS011;4895;50.926;6.870;2022-12-18T05:48:40;35.47;;;14.67;;
9712;SDS011;4895;50.926;6.870;2022-12-18T05:51:07;34.20;;;15.20;;
9712;SDS011;4895;50.926;6.870;2022-12-18T05:53:36;32.20;;;14.63;;
9712;SDS011;4895;50.926;6.870;2022-12-18T05:56:03;29.17;;;13.57;;
9712;SDS011;4895;50.926;6.870;2022-12-18T05:58:29;29.97;;;11.60;;
9712;SDS011;4895;50.926;6.870;2022-12-18T06:00:55;36.83;;;14.27;;
9712;SDS011;4895;50.926;6.870;2022-12-18T06:03:20;33.23;;;14.30;;
9712;SDS011;4895;50.926;6.870;2022-12-18T06:05:46;31.13;;;13.60;;
9712;SDS011;4895;50.926;6.870;2022-12-18T06:08:11;27.00;;;13.00;;
9712;SDS011;4895;50.926;6.870;2022-12-18T06:10:37;36.10;;;13.77;;
9712;SDS011;4895;50.926;6.870;2022-12-18T06:13:03;43.60;;;17.10;;
9712;SDS011;4895;50.926;6.870;2022-12-18T06:15:28;37.60;;;15.47;;
9712;SDS011;4895;50.926;6.870;2022-12-18T06:17:53;29.83;;;14.50;;
9712;SDS011;4895;50.926;6.870;2022-12-18T06:20:19;30.57;;;12.93;;
9712;SDS011;4895;50.926;6.870;2022-12-18T06:22:44;32.83;;;14.80;;
9712;SDS011;4895;50.926;6.870;2022-12-18T06:25:10;33.73;;;13.67;;
9712;SDS011;4895;50.926;6.870;2022-12-18T06:27:35;38.93;;;15.03;;
9712;SDS011;4895;50.926;6.870;2022-12-18T06:30:00;27.90;;;12.20;;
9712;SDS011;4895;50.926;6.870;2022-12-18T06:32:26;38.30;;;15.17;;
9712;SDS011;4895;50.926;6.870;2022-12-18T06:34:52;34.00;;;14.40;;
9712;SDS011;4895;50.926;6.870;2022-12-18T06:37:18;35.53;;;14.77;;
9712;SDS011;4895;50.926;6.870;2022-12-18T06:39:44;30.07;;;14.33;;
9712;SDS011;4895;50.926;6.870;2022-12-18T06:42:09;35.20;;;15.03;;
9712;SDS011;4895;50.926;6.870;2022-12-18T06:44:34;34.87;;;14.60;;
9712;SDS011;4895;50.926;6.870;2022-12-18T06:46:59;34.67;;;14.33;;
9712;SDS011;4895;50.926;6.870;2022-12-18T06:49:25;27.70;;;13.57;;
9712;SDS011;4895;50.926;6.870;2022-12-18T06:51:50;28.97;;;13.40;;
9712;SDS011;4895;50.926;6.870;2022-12-18T06:54:15;31.73;;;16.03;;
9712;SDS011;4895;50.926;6.870;2022-12-18T06:56:40;31.70;;;14.23;;
9712;SDS011;4895;50.926;6.870;2022-12-18T06:59:06;22.47;;;11.73;;
9712;SDS011;4895;50.926;6.870;2022-12-18T07:01:31;36.10;;;15.00;;
9712;SDS011;4895;50.926;6.870;2022-12-18T07:03:56;29.90;;;14.80;;
9712;SDS011;4895;50.926;6.870;2022-12-18T07:06:23;34.80;;;13.80;;
9712;SDS011;4895;50.926;6.870;2022-12-18T07:08:50;34.20;;;13.70;;
9712;SDS011;4895;50.926;6.870;2022-12-18T07:11:16;36.47;;;14.83;;
9712;SDS011;4895;50.926;6.870;2022-12-18T07:13:42;30.70;;;12.00;;
9712;SDS011;4895;50.926;6.870;2022-12-18T07:16:08;31.43;;;14.10;;
9712;SDS011;4895;50.926;6.870;2022-12-18T07:18:35;28.70;;;11.23;;
9712;SDS011;4895;50.926;6.870;2022-12-18T07:21:07;36.00;;;13.90;;
9712;SDS011;4895;50.926;6.870;2022-12-18T07:23:34;27.67;;;13.80;;
9712;SDS011;4895;50.926;6.870;2022-12-18T07:26:00;33.37;;;13.43;;
9712;SDS011;4895;50.926;6.870;2022-12-18T07:28:29;28.53;;;11.00;;
9712;SDS011;4895;50.926;6.870;2022-12-18T07:30:55;35.20;;;14.83;;
9712;SDS011;4895;50.926;6.870;2022-12-18T07:33:20;36.13;;;14.00;;
9712;SDS011;4895;50.926;6.870;2022-12-18T07:35:45;30.30;;;13.23;;
9712;SDS011;4895;50.926;6.870;2022-12-18T07:38:11;28.33;;;14.00;;
9712;SDS011;4895;50.926;6.870;2022-12-18T07:40:36;39.63;;;16.10;;
9712;SDS011;4895;50.926;6.870;2022-12-18T07:43:01;35.20;;;14.53;;
9712;SDS011;4895;50.926;6.870;2022-12-18T07:45:26;35.93;;;15.10;;
9712;SDS011;4895;50.926;6.870;2022-12-18T07:47:52;33.77;;;13.80;;
9712;SDS011;4895;50.926;6.870;2022-12-18T07:50:17;31.73;;;12.77;;
9712;SDS011;4895;50.926;6.870;2022-12-18T07:52:42;35.60;;;15.27;;
9712;SDS011;4895;50.926;6.870;2022-12-18T07:55:07;29.80;;;13.73;;
9712;SDS011;4895;50.926;6.870;2022-12-18T07:57:33;31.73;;;14.57;;
9712;SDS011;4895;50.926;6.870;2022-12-18T07:59:59;39.73;;;16.00;;
9712;SDS011;4895;50.926;6.870;2022-12-18T08:02:24;30.87;;;12.53;;
9712;SDS011;4895;50.926;6.870;2022-12-18T08:04:49;29.27;;;11.47;;
9712;SDS011;4895;50.926;6.870;2022-12-18T08:07:14;40.13;;;14.03;;
9712;SDS011;4895;50.926;6.870;2022-12-18T08:09:40;27.47;;;11.03;;
9712;SDS011;4895;50.926;6.870;2022-12-18T08:12:05;30.00;;;13.80;;
9712;SDS011;4895;50.926;6.870;2022-12-18T08:14:30;39.77;;;15.67;;
9712;SDS011;4895;50.926;6.870;2022-12-18T08:16:56;41.90;;;18.50;;
9712;SDS011;4895;50.926;6.870;2022-12-18T08:19:21;28.10;;;14.00;;
9712;SDS011;4895;50.926;6.870;2022-12-18T08:21:46;33.60;;;15.60;;
9712;SDS011;4895;50.926;6.870;2022-12-18T08:24:12;34.37;;;15.10;;
9712;SDS011;4895;50.926;6.870;2022-12-18T08:26:37;27.53;;;11.47;;
9712;SDS011;4895;50.926;6.870;2022-12-18T08:29:02;32.97;;;14.83;;
9712;SDS011;4895;50.926;6.870;2022-12-18T08:31:28;34.43;;;14.90;;
9712;SDS011;4895;50.926;6.870;2022-12-18T08:33:54;35.00;;;13.80;;
9712;SDS011;4895;50.926;6.870;2022-12-18T08:36:20;28.80;;;13.80;;
9712;SDS011;4895;50.926;6.870;2022-12-18T08:38:45;36.43;;;15.30;;
9712;SDS011;4895;50.926;6.870;2022-12-18T08:41:12;29.63;;;13.60;;
9712;SDS011;4895;50.926;6.870;2022-12-18T08:43:38;41.13;;;17.40;;
9712;SDS011;4895;50.926;6.870;2022-12-18T08:46:23;30.63;;;13.23;;
9712;SDS011;4895;50.926;6.870;2022-12-18T08:48:51;29.43;;;12.13;;
9712;SDS011;4895;50.926;6.870;2022-12-18T08:51:17;28.00;;;13.20;;
9712;SDS011;4895;50.926;6.870;2022-12-18T08:53:42;26.07;;;12.70;;
9712;SDS011;4895;50.926;6.870;2022-12-18T08:56:09;23.67;;;12.00;;
9712;SDS011;4895;50.926;6.870;2022-12-18T08:58:34;35.53;;;14.80;;
9712;SDS011;4895;50.926;6.870;2022-12-18T09:01:00;25.00;;;11.10;;
9712;SDS011;4895;50.926;6.870;2022-12-18T09:03:27;34.00;;;14.60;;
9712;SDS011;4895;50.926;6.870;2022-12-18T09:05:52;32.73;;;15.37;;
9712;SDS011;4895;50.926;6.870;2022-12-18T09:08:17;30.70;;;13.70;;
9712;SDS011;4895;50.926;6.870;2022-12-18T09:10:44;30.33;;;13.63;;
9712;SDS011;4895;50.926;6.870;2022-12-18T09:13:10;30.63;;;13.63;;
9712;SDS011;4895;50.926;6.870;2022-12-18T09:15:40;34.47;;;13.87;;
9712;SDS011;4895;50.926;6.870;2022-12-18T09:18:06;29.83;;;13.90;;
9712;SDS011;4895;50.926;6.870;2022-12-18T09:20:32;32.17;;;13.83;;
9712;SDS011;4895;50.926;6.870;2022-12-18T09:22:57;37.57;;;14.90;;
9712;SDS011;4895;50.926;6.870;2022-12-18T09:25:22;26.90;;;12.07;;
9712;SDS011;4895;50.926;6.870;2022-12-18T09:27:47;31.97;;;15.67;;
9712;SDS011;4895;50.926;6.870;2022-12-18T09:30:13;31.13;;;13.97;;
9712;SDS011;4895;50.926;6.870;2022-12-18T09:32:38;30.87;;;14.77;;
9712;SDS011;4895;50.926;6.870;2022-12-18T09:35:03;31.40;;;15.40;;
9712;SDS011;4895;50.926;6.870;2022-12-18T09:37:29;29.80;;;13.30;;
9712;SDS011;4895;50.926;6.870;2022-12-18T09:39:54;25.23;;;11.20;;
9712;SDS011;4895;50.926;6.870;2022-12-18T09:42:20;30.13;;;13.77;;
9712;SDS011;4895;50.926;6.870;2022-12-18T09:44:49;26.10;;;12.40;;
9712;SDS011;4895;50.926;6.870;2022-12-18T09:49:53;32.50;;;14.40;;
9712;SDS011;4895;50.926;6.870;2022-12-18T09:52:24;31.93;;;13.83;;
9712;SDS011;4895;50.926;6.870;2022-12-18T09:55:03;30.87;;;13.73;;
9712;SDS011;4895;50.926;6.870;2022-12-18T09:57:33;29.33;;;14.60;;
9712;SDS011;4895;50.926;6.870;2022-12-18T10:00:19;27.27;;;13.57;;
9712;SDS011;4895;50.926;6.870;2022-12-18T10:02:46;34.47;;;15.53;;
9712;SDS011;4895;50.926;6.870;2022-12-18T10:05:17;20.13;;;10.03;;
9712;SDS011;4895;50.926;6.870;2022-12-18T10:08:02;30.30;;;12.80;;
9712;SDS011;4895;50.926;6.870;2022-12-18T10:13:59;31.17;;;14.27;;
9712;SDS011;4895;50.926;6.870;2022-12-18T10:16:36;29.73;;;13.57;;
9712;SDS011;4895;50.926;6.870;2022-12-18T10:24:37;22.60;;;11.70;;
9712;SDS011;4895;50.926;6.870;2022-12-18T10:27:12;28.37;;;12.70;;
9712;SDS011;4895;50.926;6.870;2022-12-18T10:29:40;23.10;;;12.17;;
9712;SDS011;4895;50.926;6.870;2022-12-18T10:32:07;29.50;;;12.70;;
9712;SDS011;4895;50.926;6.870;2022-12-18T10:34:33;26.20;;;12.67;;
9712;SDS011;4895;50.926;6.870;2022-12-18T10:37:00;30.07;;;14.57;;
9712;SDS011;4895;50.926;6.870;2022-12-18T10:39:25;27.03;;;12.90;;
9712;SDS011;4895;50.926;6.870;2022-12-18T10:41:51;33.90;;;13.17;;
9712;SDS011;4895;50.926;6.870;2022-12-18T10:46:45;29.40;;;13.30;;
9712;SDS011;4895;50.926;6.870;2022-12-18T10:49:19;32.67;;;12.40;;
9712;SDS011;4895;50.926;6.870;2022-12-18T10:52:32;27.23;;;13.70;;
9712;SDS011;4895;50.926;6.870;2022-12-18T10:54:58;29.23;;;14.00;;
9712;SDS011;4895;50.926;6.870;2022-12-18T10:57:32;33.37;;;13.23;;
9712;SDS011;4895;50.926;6.870;2022-12-18T11:00:03;24.73;;;12.60;;
9712;SDS011;4895;50.926;6.870;2022-12-18T11:02:45;32.13;;;14.77;;
9712;SDS011;4895;50.926;6.870;2022-12-18T11:07:55;32.50;;;13.37;;
9712;SDS011;4895;50.926;6.870;2022-12-18T11:10:31;29.40;;;13.50;;
9712;SDS011;4895;50.926;6.870;2022-12-18T11:15:43;37.40;;;13.03;;
9712;SDS011;4895;50.926;6.870;2022-12-18T11:20:43;30.20;;;14.73;;
9712;SDS011;4895;50.926;6.870;2022-12-18T11:23:15;26.60;;;13.33;;
9712;SDS011;4895;50.926;6.870;2022-12-18T11:25:41;28.80;;;14.30;;
9712;SDS011;4895;50.926;6.870;2022-12-18T11:28:29;40.33;;;16.27;;
9712;SDS011;4895;50.926;6.870;2022-12-18T11:34:03;31.77;;;13.77;;
9712;SDS011;4895;50.926;6.870;2022-12-18T11:36:33;26.10;;;12.67;;
9712;SDS011;4895;50.926;6.870;2022-12-18T11:39:03;29.40;;;12.20;;
9712;SDS011;4895;50.926;6.870;2022-12-18T11:41:37;31.50;;;12.90;;
9712;SDS011;4895;50.926;6.870;2022-12-18T11:44:26;30.23;;;14.40;;
9712;SDS011;4895;50.926;6.870;2022-12-18T11:46:55;22.10;;;11.80;;
9712;SDS011;4895;50.926;6.870;2022-12-18T11:49:26;26.97;;;15.40;;
9712;SDS011;4895;50.926;6.870;2022-12-18T11:52:07;30.13;;;14.23;;
9712;SDS011;4895;50.926;6.870;2022-12-18T11:54:41;28.33;;;14.60;;
9712;SDS011;4895;50.926;6.870;2022-12-18T12:00:09;34.27;;;13.57;;
9712;SDS011;4895;50.926;6.870;2022-12-18T12:13:31;29.33;;;13.97;;
9712;SDS011;4895;50.926;6.870;2022-12-18T12:18:49;29.80;;;15.10;;
9712;SDS011;4895;50.926;6.870;2022-12-18T12:30:07;32.47;;;14.40;;
9712;SDS011;4895;50.926;6.870;2022-12-18T12:38:13;32.90;;;15.93;;
9712;SDS011;4895;50.926;6.870;2022-12-18T12:40:47;36.30;;;17.17;;
9712;SDS011;4895;50.926;6.870;2022-12-18T12:46:10;32.67;;;16.07;;
9712;SDS011;4895;50.926;6.870;2022-12-18T12:48:46;27.30;;;13.83;;
9712;SDS011;4895;50.926;6.870;2022-12-18T12:53:42;33.33;;;17.10;;
9712;SDS011;4895;50.926;6.870;2022-12-18T12:56:08;28.50;;;11.73;;
9712;SDS011;4895;50.926;6.870;2022-12-18T13:01:40;34.67;;;15.20;;
9712;SDS011;4895;50.926;6.870;2022-12-18T13:07:01;36.60;;;17.30;;
9712;SDS011;4895;50.926;6.870;2022-12-18T13:09:32;29.87;;;13.90;;
9712;SDS011;4895;50.926;6.870;2022-12-18T13:12:04;36.50;;;16.80;;
9712;SDS011;4895;50.926;6.870;2022-12-18T13:14:52;33.27;;;16.00;;
9712;SDS011;4895;50.926;6.870;2022-12-18T13:19:55;38.60;;;17.43;;
9712;SDS011;4895;50.926;6.870;2022-12-18T13:22:30;32.97;;;14.57;;
9712;SDS011;4895;50.926;6.870;2022-12-18T13:24:58;34.40;;;16.10;;
9712;SDS011;4895;50.926;6.870;2022-12-18T13:35:38;30.10;;;15.07;;
9712;SDS011;4895;50.926;6.870;2022-12-18T13:38:19;38.70;;;17.93;;
9712;SDS011;4895;50.926;6.870;2022-12-18T13:45:43;33.57;;;16.37;;
9712;SDS011;4895;50.926;6.870;2022-12-18T13:48:17;38.80;;;16.50;;
9712;SDS011;4895;50.926;6.870;2022-12-18T13:50:55;43.43;;;17.07;;
9712;SDS011;4895;50.926;6.870;2022-12-18T13:53:24;35.23;;;15.00;;
9712;SDS011;4895;50.926;6.870;2022-12-18T13:55:52;43.37;;;19.00;;
9712;SDS011;4895;50.926;6.870;2022-12-18T13:58:18;42.83;;;18.00;;
9712;SDS011;4895;50.926;6.870;2022-12-18T14:00:43;40.13;;;17.83;;
9712;SDS011;4895;50.926;6.870;2022-12-18T14:03:22;38.00;;;17.03;;
9712;SDS011;4895;50.926;6.870;2022-12-18T14:05:54;38.27;;;17.27;;
9712;SDS011;4895;50.926;6.870;2022-12-18T14:08:25;30.97;;;15.17;;
9712;SDS011;4895;50.926;6.870;2022-12-18T14:10:55;32.40;;;12.20;;
9712;SDS011;4895;50.926;6.870;2022-12-18T14:13:24;44.47;;;19.40;;
9712;SDS011;4895;50.926;6.870;2022-12-18T14:16:03;37.07;;;17.20;;
9712;SDS011;4895;50.926;6.870;2022-12-18T14:18:41;40.50;;;17.00;;
9712;SDS011;4895;50.926;6.870;2022-12-18T14:21:28;38.33;;;18.50;;
9712;SDS011;4895;50.926;6.870;2022-12-18T14:26:30;34.67;;;15.17;;
9712;SDS011;4895;50.926;6.870;2022-12-18T14:28:56;44.43;;;17.00;;
9712;SDS011;4895;50.926;6.870;2022-12-18T14:31:26;43.57;;;18.80;;
9712;SDS011;4895;50.926;6.870;2022-12-18T14:33:52;36.87;;;17.07;;
9712;SDS011;4895;50.926;6.870;2022-12-18T14:36:22;35.63;;;18.47;;
9712;SDS011;4895;50.926;6.870;2022-12-18T14:38:52;44.47;;;18.20;;
9712;SDS011;4895;50.926;6.870;2022-12-18T14:41:19;52.93;;;18.43;;
9712;SDS011;4895;50.926;6.870;2022-12-18T14:43:46;45.47;;;19.00;;
9712;SDS011;4895;50.926;6.870;2022-12-18T14:46:26;46.90;;;18.07;;
9712;SDS011;4895;50.926;6.870;2022-12-18T14:48:58;34.00;;;14.60;;
9712;SDS011;4895;50.926;6.870;2022-12-18T14:51:28;39.93;;;17.80;;
9712;SDS011;4895;50.926;6.870;2022-12-18T14:53:56;42.30;;;18.40;;
9712;SDS011;4895;50.926;6.870;2022-12-18T14:56:32;41.03;;;19.30;;
9712;SDS011;4895;50.926;6.870;2022-12-18T14:58:59;39.30;;;17.97;;
9712;SDS011;4895;50.926;6.870;2022-12-18T15:01:30;42.93;;;18.93;;
9712;SDS011;4895;50.926;6.870;2022-12-18T15:03:57;36.97;;;17.60;;
9712;SDS011;4895;50.926;6.870;2022-12-18T15:06:34;47.17;;;16.40;;
9712;SDS011;4895;50.926;6.870;2022-12-18T15:09:05;36.03;;;17.43;;
9712;SDS011;4895;50.926;6.870;2022-12-18T15:11:47;37.60;;;16.40;;
9712;SDS011;4895;50.926;6.870;2022-12-18T15:14:22;43.80;;;19.93;;
9712;SDS011;4895;50.926;6.870;2022-12-18T15:16:50;36.90;;;16.73;;
9712;SDS011;4895;50.926;6.870;2022-12-18T15:19:17;33.23;;;16.77;;
9712;SDS011;4895;50.926;6.870;2022-12-18T15:21:42;43.33;;;18.13;;
9712;SDS011;4895;50.926;6.870;2022-12-18T15:24:15;44.87;;;19.23;;
9712;SDS011;4895;50.926;6.870;2022-12-18T15:26:42;46.03;;;20.63;;
9712;SDS011;4895;50.926;6.870;2022-12-18T15:29:15;32.60;;;15.03;;
9712;SDS011;4895;50.926;6.870;2022-12-18T15:31:44;40.30;;;16.60;;
9712;SDS011;4895;50.926;6.870;2022-12-18T15:34:12;37.77;;;20.00;;
9712;SDS011;4895;50.926;6.870;2022-12-18T15:36:37;48.13;;;17.03;;
9712;SDS011;4895;50.926;6.870;2022-12-18T15:39:03;42.10;;;19.33;;
9712;SDS011;4895;50.926;6.870;2022-12-18T15:41:30;39.27;;;18.33;;
9712;SDS011;4895;50.926;6.870;2022-12-18T15:43:56;40.47;;;15.87;;
9712;SDS011;4895;50.926;6.870;2022-12-18T15:46:22;35.60;;;17.10;;
9712;SDS011;4895;50.926;6.870;2022-12-18T15:48:49;38.77;;;17.93;;
9712;SDS011;4895;50.926;6.870;2022-12-18T15:51:28;42.00;;;18.03;;
9712;SDS011;4895;50.926;6.870;2022-12-18T15:53:55;32.07;;;15.40;;
9712;SDS011;4895;50.926;6.870;2022-12-18T15:56:21;29.17;;;13.37;;
9712;SDS011;4895;50.926;6.870;2022-12-18T15:59:10;40.87;;;18.37;;
9712;SDS011;4895;50.926;6.870;2022-12-18T16:01:37;41.50;;;18.33;;
9712;SDS011;4895;50.926;6.870;2022-12-18T16:04:02;48.80;;;19.93;;
9712;SDS011;4895;50.926;6.870;2022-12-18T16:06:27;43.87;;;20.50;;
9712;SDS011;4895;50.926;6.870;2022-12-18T16:08:52;39.90;;;18.07;;
9712;SDS011;4895;50.926;6.870;2022-12-18T16:11:25;49.93;;;18.60;;
9712;SDS011;4895;50.926;6.870;2022-12-18T16:14:12;37.87;;;17.67;;
9712;SDS011;4895;50.926;6.870;2022-12-18T16:16:44;42.57;;;17.90;;
9712;SDS011;4895;50.926;6.870;2022-12-18T16:19:10;45.90;;;21.43;;
9712;SDS011;4895;50.926;6.870;2022-12-18T16:21:35;42.10;;;19.63;;
9712;SDS011;4895;50.926;6.870;2022-12-18T16:24:01;37.80;;;17.67;;
9712;SDS011;4895;50.926;6.870;2022-12-18T16:26:27;43.73;;;20.30;;
9712;SDS011;4895;50.926;6.870;2022-12-18T16:28:52;42.70;;;20.07;;
9712;SDS011;4895;50.926;6.870;2022-12-18T16:31:18;41.57;;;17.80;;
9712;SDS011;4895;50.926;6.870;2022-12-18T16:33:43;47.77;;;21.93;;
9712;SDS011;4895;50.926;6.870;2022-12-18T16:36:08;48.77;;;22.20;;
9712;SDS011;4895;50.926;6.870;2022-12-18T16:38:34;49.00;;;21.30;;
9712;SDS011;4895;50.926;6.870;2022-12-18T16:40:59;43.80;;;20.53;;
9712;SDS011;4895;50.926;6.870;2022-12-18T16:43:43;48.47;;;22.17;;
9712;SDS011;4895;50.926;6.870;2022-12-18T16:46:08;41.07;;;18.57;;
9712;SDS011;4895;50.926;6.870;2022-12-18T16:48:33;46.43;;;22.50;;
9712;SDS011;4895;50.926;6.870;2022-12-18T16:50:59;46.10;;;21.00;;
9712;SDS011;4895;50.926;6.870;2022-12-18T16:53:29;46.60;;;23.03;;